TimeEDT,TemperatureF,Dew PointF,Humidity,Sea Level PressureIn,VisibilityMPH,Wind Direction,Wind SpeedMPH,Gust SpeedMPH,PrecipitationIn,Events,Conditions,WindDirDegrees,DateUTC
12:51 AM,39.9,24.1,53,29.69,10.0,NE,4.6,-,N/A,,Clear,40,2013-03-25 04:51:00
1:51 AM,39.0,26.1,60,29.70,10.0,South,4.6,-,N/A,,Clear,180,2013-03-25 05:51:00
2:51 AM,39.0,25.0,57,29.67,10.0,Calm,Calm,-,N/A,,Clear,0,2013-03-25 06:51:00
3:51 AM,39.0,24.1,55,29.63,10.0,NE,3.5,-,N/A,,Clear,40,2013-03-25 07:51:00
4:51 AM,37.9,25.0,60,29.62,10.0,NE,4.6,-,N/A,,Overcast,40,2013-03-25 08:51:00
5:51 AM,37.9,26.1,62,29.62,10.0,NE,6.9,-,N/A,,Overcast,40,2013-03-25 09:51:00
6:51 AM,37.9,27.0,65,29.61,10.0,NE,6.9,-,N/A,,Overcast,40,2013-03-25 10:51:00
7:51 AM,37.9,26.1,62,29.60,10.0,NE,9.2,17.3,N/A,,Overcast,40,2013-03-25 11:51:00
8:51 AM,39.0,26.1,60,29.62,10.0,Calm,Calm,-,N/A,,Overcast,0,2013-03-25 12:51:00
9:51 AM,39.9,24.1,53,29.60,10.0,NE,11.5,20.7,N/A,,Overcast,50,2013-03-25 13:51:00
10:51 AM,39.9,24.1,53,29.58,10.0,East,16.1,23.0,N/A,,Overcast,80,2013-03-25 14:51:00
11:51 AM,41.0,27.0,57,29.56,7.0,East,13.8,25.3,N/A,,Overcast,80,2013-03-25 15:51:00
12:51 PM,41.0,24.1,51,29.53,7.0,East,16.1,31.1,0.00,,Overcast,80,2013-03-25 16:51:00
1:51 PM,39.0,28.9,67,29.51,5.0,ENE,13.8,26.5,0.00,,Unknown,70,2013-03-25 17:51:00
2:01 PM,39.2,30.2,70,29.50,4.0,ENE,10.4,24.2,0.00,,Overcast,70,2013-03-25 18:01:00
2:51 PM,37.9,32.0,79,29.48,5.0,ENE,4.6,-,0.00,Rain,Light Rain,60,2013-03-25 18:51:00
3:15 PM,39.2,33.8,81,29.48,5.0,ENE,4.6,-,0.00,Rain,Light Rain,60,2013-03-25 19:15:00
3:27 PM,37.4,33.8,87,29.47,5.0,NE,4.6,-,0.00,Rain,Light Rain,50,2013-03-25 19:27:00
3:41 PM,37.4,33.8,87,29.47,4.0,ENE,4.6,-,0.01,Rain,Light Rain,70,2013-03-25 19:41:00
3:51 PM,37.9,34.0,86,29.47,4.0,East,6.9,-,0.01,Rain,Light Rain,90,2013-03-25 19:51:00
4:51 PM,37.9,34.0,86,29.47,5.0,Calm,Calm,-,0.01,Rain,Light Rain,0,2013-03-25 20:51:00
5:51 PM,37.0,35.1,93,29.48,5.0,Calm,Calm,-,0.04,Rain,Light Rain,0,2013-03-25 21:51:00
5:58 PM,37.4,33.8,87,29.48,5.0,Calm,Calm,-,0.00,Rain,Light Rain,0,2013-03-25 21:58:00
6:36 PM,37.4,35.6,93,29.49,5.0,NNW,5.8,-,0.01,Rain,Light Rain,330,2013-03-25 22:36:00
6:51 PM,37.9,35.1,89,29.50,5.0,NNW,4.6,-,0.01,Rain,Light Rain,340,2013-03-25 22:51:00
7:31 PM,37.4,35.6,93,29.52,5.0,NW,3.5,-,0.01,Rain,Light Rain,320,2013-03-25 23:31:00
7:51 PM,37.9,35.1,89,29.52,7.0,NW,4.6,-,0.01,Rain,Light Rain,310,2013-03-25 23:51:00
8:51 PM,39.0,32.0,76,29.55,8.0,NE,8.1,-,0.01,Rain,Light Rain,50,2013-03-26 00:51:00
9:23 PM,39.2,32.0,75,29.56,10.0,North,5.8,-,0.00,Rain,Light Rain,350,2013-03-26 01:23:00
9:51 PM,39.9,30.0,68,29.57,10.0,NE,5.8,-,0.00,,Overcast,40,2013-03-26 01:51:00
10:51 PM,41.0,27.0,57,29.57,10.0,NNE,6.9,-,N/A,,Overcast,20,2013-03-26 02:51:00
11:51 PM,37.9,30.0,73,29.58,10.0,NNW,9.2,-,N/A,,Mostly Cloudy,330,2013-03-26 03:51:00